sensor_id;sensor_type;location;lat;lon;timestamp;P1;durP1;ratioP1;P2;durP2;ratioP2
21647;SDS011;10985;54.182;7.890;2023-04-25T00:02:11;36.33;;;7.40;;
21647;SDS011;10985;54.182;7.890;2023-04-25T00:04:37;33.55;;;5.95;;
21647;SDS011;10985;54.182;7.890;2023-04-25T00:07:02;30.15;;;7.07;;
21647;SDS011;10985;54.182;7.890;2023-04-25T00:09:28;37.17;;;7.50;;
21647;SDS011;10985;54.182;7.890;2023-04-25T00:11:54;33.90;;;7.05;;
21647;SDS011;10985;54.182;7.890;2023-04-25T00:14:20;26.58;;;6.28;;
21647;SDS011;10985;54.182;7.890;2023-04-25T00:16:45;28.02;;;5.82;;
21647;SDS011;10985;54.182;7.890;2023-04-25T00:19:11;26.13;;;5.00;;
21647;SDS011;10985;54.182;7.890;2023-04-25T00:21:37;32.20;;;5.32;;
21647;SDS011;10985;54.182;7.890;2023-04-25T00:24:05;28.20;;;7.07;;
21647;SDS011;10985;54.182;7.890;2023-04-25T00:26:31;26.42;;;5.57;;
21647;SDS011;10985;54.182;7.890;2023-04-25T00:28:58;26.27;;;5.60;;
21647;SDS011;10985;54.182;7.890;2023-04-25T00:31:23;20.30;;;5.75;;
21647;SDS011;10985;54.182;7.890;2023-04-25T00:33:49;20.13;;;5.15;;
21647;SDS011;10985;54.182;7.890;2023-04-25T00:36:14;28.00;;;5.80;;
21647;SDS011;10985;54.182;7.890;2023-04-25T00:38:40;18.38;;;5.50;;
21647;SDS011;10985;54.182;7.890;2023-04-25T00:41:06;20.67;;;5.25;;
21647;SDS011;10985;54.182;7.890;2023-04-25T00:43:32;26.55;;;5.82;;
21647;SDS011;10985;54.182;7.890;2023-04-25T00:45:59;28.20;;;5.40;;
21647;SDS011;10985;54.182;7.890;2023-04-25T00:48:25;19.88;;;4.45;;
21647;SDS011;10985;54.182;7.890;2023-04-25T00:50:52;32.40;;;7.10;;
21647;SDS011;10985;54.182;7.890;2023-04-25T00:53:20;17.17;;;5.10;;
21647;SDS011;10985;54.182;7.890;2023-04-25T00:55:46;23.08;;;6.03;;
21647;SDS011;10985;54.182;7.890;2023-04-25T00:58:12;28.05;;;5.18;;
21647;SDS011;10985;54.182;7.890;2023-04-25T01:00:39;31.00;;;5.43;;
21647;SDS011;10985;54.182;7.890;2023-04-25T01:03:05;32.38;;;6.13;;
21647;SDS011;10985;54.182;7.890;2023-04-25T01:05:31;30.50;;;5.90;;
21647;SDS011;10985;54.182;7.890;2023-04-25T01:07:56;35.75;;;6.40;;
21647;SDS011;10985;54.182;7.890;2023-04-25T01:10:22;23.40;;;6.20;;
21647;SDS011;10985;54.182;7.890;2023-04-25T01:12:47;30.40;;;6.72;;
21647;SDS011;10985;54.182;7.890;2023-04-25T01:15:13;31.63;;;6.80;;
21647;SDS011;10985;54.182;7.890;2023-04-25T01:17:39;30.20;;;5.97;;
21647;SDS011;10985;54.182;7.890;2023-04-25T01:20:06;22.17;;;5.75;;
21647;SDS011;10985;54.182;7.890;2023-04-25T01:22:34;22.52;;;5.47;;
21647;SDS011;10985;54.182;7.890;2023-04-25T01:25:00;29.50;;;6.20;;
21647;SDS011;10985;54.182;7.890;2023-04-25T01:27:25;31.75;;;6.38;;
21647;SDS011;10985;54.182;7.890;2023-04-25T01:29:52;33.60;;;5.85;;
21647;SDS011;10985;54.182;7.890;2023-04-25T01:32:19;24.23;;;5.95;;
21647;SDS011;10985;54.182;7.890;2023-04-25T01:34:46;20.17;;;5.53;;
21647;SDS011;10985;54.182;7.890;2023-04-25T01:37:11;19.70;;;5.38;;
21647;SDS011;10985;54.182;7.890;2023-04-25T01:39:37;17.70;;;5.28;;
21647;SDS011;10985;54.182;7.890;2023-04-25T01:42:03;19.83;;;5.10;;
21647;SDS011;10985;54.182;7.890;2023-04-25T01:44:28;20.73;;;5.20;;
21647;SDS011;10985;54.182;7.890;2023-04-25T01:46:54;27.42;;;5.72;;
21647;SDS011;10985;54.182;7.890;2023-04-25T01:49:19;15.27;;;4.75;;
21647;SDS011;10985;54.182;7.890;2023-04-25T01:51:45;21.33;;;5.63;;
21647;SDS011;10985;54.182;7.890;2023-04-25T01:54:10;19.30;;;5.40;;
21647;SDS011;10985;54.182;7.890;2023-04-25T01:56:37;27.85;;;6.00;;
21647;SDS011;10985;54.182;7.890;2023-04-25T01:59:03;23.33;;;5.20;;
21647;SDS011;10985;54.182;7.890;2023-04-25T02:01:30;23.13;;;5.15;;
21647;SDS011;10985;54.182;7.890;2023-04-25T02:03:56;29.10;;;5.40;;
21647;SDS011;10985;54.182;7.890;2023-04-25T02:06:21;25.63;;;5.57;;
21647;SDS011;10985;54.182;7.890;2023-04-25T02:08:47;26.08;;;5.47;;
21647;SDS011;10985;54.182;7.890;2023-04-25T02:11:12;27.70;;;6.72;;
21647;SDS011;10985;54.182;7.890;2023-04-25T02:13:38;30.98;;;6.35;;
21647;SDS011;10985;54.182;7.890;2023-04-25T02:16:03;19.20;;;5.18;;
21647;SDS011;10985;54.182;7.890;2023-04-25T02:18:29;16.20;;;4.90;;
21647;SDS011;10985;54.182;7.890;2023-04-25T02:20:56;20.33;;;4.90;;
21647;SDS011;10985;54.182;7.890;2023-04-25T02:23:22;19.33;;;4.68;;
21647;SDS011;10985;54.182;7.890;2023-04-25T02:25:48;21.42;;;4.43;;
21647;SDS011;10985;54.182;7.890;2023-04-25T02:28:14;21.73;;;5.32;;
21647;SDS011;10985;54.182;7.890;2023-04-25T02:30:39;21.00;;;5.47;;
21647;SDS011;10985;54.182;7.890;2023-04-25T02:33:05;26.10;;;5.28;;
21647;SDS011;10985;54.182;7.890;2023-04-25T02:35:30;23.67;;;5.10;;
21647;SDS011;10985;54.182;7.890;2023-04-25T02:37:56;23.30;;;5.15;;
21647;SDS011;10985;54.182;7.890;2023-04-25T02:40:22;24.77;;;5.35;;
21647;SDS011;10985;54.182;7.890;2023-04-25T02:42:47;25.55;;;5.95;;
21647;SDS011;10985;54.182;7.890;2023-04-25T02:45:13;31.95;;;6.43;;
21647;SDS011;10985;54.182;7.890;2023-04-25T02:47:38;39.25;;;5.90;;
21647;SDS011;10985;54.182;7.890;2023-04-25T02:50:04;23.92;;;4.38;;
21647;SDS011;10985;54.182;7.890;2023-04-25T02:52:30;23.60;;;6.10;;
21647;SDS011;10985;54.182;7.890;2023-04-25T02:54:55;28.92;;;5.22;;
21647;SDS011;10985;54.182;7.890;2023-04-25T02:57:21;22.38;;;5.68;;
21647;SDS011;10985;54.182;7.890;2023-04-25T02:59:46;16.65;;;4.80;;
21647;SDS011;10985;54.182;7.890;2023-04-25T03:02:12;30.25;;;5.60;;
21647;SDS011;10985;54.182;7.890;2023-04-25T03:04:37;27.70;;;5.07;;
21647;SDS011;10985;54.182;7.890;2023-04-25T03:07:03;28.38;;;6.05;;
21647;SDS011;10985;54.182;7.890;2023-04-25T03:09:30;28.88;;;5.22;;
21647;SDS011;10985;54.182;7.890;2023-04-25T03:11:55;23.83;;;5.70;;
21647;SDS011;10985;54.182;7.890;2023-04-25T03:14:21;13.93;;;4.07;;
21647;SDS011;10985;54.182;7.890;2023-04-25T03:16:46;23.48;;;4.38;;
21647;SDS011;10985;54.182;7.890;2023-04-25T03:19:12;23.80;;;4.78;;
21647;SDS011;10985;54.182;7.890;2023-04-25T03:21:37;20.65;;;4.90;;
21647;SDS011;10985;54.182;7.890;2023-04-25T03:24:03;19.05;;;4.78;;
21647;SDS011;10985;54.182;7.890;2023-04-25T03:26:29;17.15;;;5.03;;
21647;SDS011;10985;54.182;7.890;2023-04-25T03:28:55;21.15;;;5.28;;
21647;SDS011;10985;54.182;7.890;2023-04-25T03:31:21;27.48;;;4.55;;
21647;SDS011;10985;54.182;7.890;2023-04-25T03:33:47;25.65;;;5.65;;
21647;SDS011;10985;54.182;7.890;2023-04-25T03:36:12;29.52;;;6.00;;
21647;SDS011;10985;54.182;7.890;2023-04-25T03:38:38;28.75;;;4.82;;
21647;SDS011;10985;54.182;7.890;2023-04-25T03:41:06;19.73;;;4.93;;
21647;SDS011;10985;54.182;7.890;2023-04-25T03:43:31;18.70;;;4.43;;
21647;SDS011;10985;54.182;7.890;2023-04-25T03:45:57;12.27;;;4.45;;
21647;SDS011;10985;54.182;7.890;2023-04-25T03:48:22;15.45;;;4.57;;
21647;SDS011;10985;54.182;7.890;2023-04-25T03:50:49;16.08;;;4.22;;
21647;SDS011;10985;54.182;7.890;2023-04-25T03:53:15;16.33;;;4.40;;
21647;SDS011;10985;54.182;7.890;2023-04-25T03:55:40;14.85;;;4.32;;
21647;SDS011;10985;54.182;7.890;2023-04-25T03:58:06;17.80;;;5.15;;
21647;SDS011;10985;54.182;7.890;2023-04-25T04:00:33;14.40;;;4.60;;
21647;SDS011;10985;54.182;7.890;2023-04-25T04:02:58;16.92;;;4.80;;
21647;SDS011;10985;54.182;7.890;2023-04-25T04:05:24;22.00;;;4.70;;
21647;SDS011;10985;54.182;7.890;2023-04-25T04:07:49;19.35;;;3.97;;
21647;SDS011;10985;54.182;7.890;2023-04-25T04:10:15;21.10;;;5.15;;
21647;SDS011;10985;54.182;7.890;2023-04-25T04:12:40;24.35;;;5.53;;
21647;SDS011;10985;54.182;7.890;2023-04-25T04:15:06;27.60;;;5.07;;
21647;SDS011;10985;54.182;7.890;2023-04-25T04:17:32;12.07;;;3.92;;
21647;SDS011;10985;54.182;7.890;2023-04-25T04:19:58;21.77;;;3.83;;
21647;SDS011;10985;54.182;7.890;2023-04-25T04:22:24;20.73;;;4.80;;
21647;SDS011;10985;54.182;7.890;2023-04-25T04:24:50;31.15;;;5.47;;
21647;SDS011;10985;54.182;7.890;2023-04-25T04:27:19;28.00;;;5.45;;
21647;SDS011;10985;54.182;7.890;2023-04-25T04:29:45;18.88;;;4.38;;
21647;SDS011;10985;54.182;7.890;2023-04-25T04:32:11;20.52;;;5.60;;
21647;SDS011;10985;54.182;7.890;2023-04-25T04:34:37;20.35;;;4.00;;
21647;SDS011;10985;54.182;7.890;2023-04-25T04:37:04;14.38;;;4.07;;
21647;SDS011;10985;54.182;7.890;2023-04-25T04:39:30;16.67;;;4.80;;
21647;SDS011;10985;54.182;7.890;2023-04-25T04:41:55;16.77;;;4.47;;
21647;SDS011;10985;54.182;7.890;2023-04-25T04:44:21;11.23;;;3.67;;
21647;SDS011;10985;54.182;7.890;2023-04-25T04:46:46;22.63;;;4.70;;
21647;SDS011;10985;54.182;7.890;2023-04-25T04:49:12;21.35;;;4.32;;
21647;SDS011;10985;54.182;7.890;2023-04-25T04:51:38;20.42;;;5.13;;
21647;SDS011;10985;54.182;7.890;2023-04-25T04:54:05;15.00;;;4.22;;
21647;SDS011;10985;54.182;7.890;2023-04-25T04:56:30;22.67;;;4.80;;
21647;SDS011;10985;54.182;7.890;2023-04-25T04:58:57;34.72;;;5.50;;
21647;SDS011;10985;54.182;7.890;2023-04-25T05:01:23;24.38;;;5.38;;
21647;SDS011;10985;54.182;7.890;2023-04-25T05:03:49;25.92;;;5.82;;
21647;SDS011;10985;54.182;7.890;2023-04-25T05:06:15;25.05;;;4.80;;
21647;SDS011;10985;54.182;7.890;2023-04-25T05:08:41;23.05;;;4.53;;
21647;SDS011;10985;54.182;7.890;2023-04-25T05:11:07;22.17;;;5.15;;
21647;SDS011;10985;54.182;7.890;2023-04-25T05:13:32;28.33;;;5.10;;
21647;SDS011;10985;54.182;7.890;2023-04-25T05:15:58;21.38;;;3.95;;
21647;SDS011;10985;54.182;7.890;2023-04-25T05:18:23;20.15;;;5.13;;
21647;SDS011;10985;54.182;7.890;2023-04-25T05:20:49;23.00;;;4.80;;
21647;SDS011;10985;54.182;7.890;2023-04-25T05:23:14;22.25;;;3.97;;
21647;SDS011;10985;54.182;7.890;2023-04-25T05:25:40;23.33;;;4.13;;
21647;SDS011;10985;54.182;7.890;2023-04-25T05:28:05;20.02;;;4.78;;
21647;SDS011;10985;54.182;7.890;2023-04-25T05:30:31;19.17;;;4.22;;
21647;SDS011;10985;54.182;7.890;2023-04-25T05:32:57;16.70;;;3.92;;
21647;SDS011;10985;54.182;7.890;2023-04-25T05:35:22;15.77;;;4.57;;
21647;SDS011;10985;54.182;7.890;2023-04-25T05:37:48;24.88;;;4.72;;
21647;SDS011;10985;54.182;7.890;2023-04-25T05:40:13;23.00;;;4.97;;
21647;SDS011;10985;54.182;7.890;2023-04-25T05:42:39;22.48;;;4.68;;
21647;SDS011;10985;54.182;7.890;2023-04-25T05:45:05;16.90;;;4.50;;
21647;SDS011;10985;54.182;7.890;2023-04-25T05:47:30;24.05;;;4.80;;
21647;SDS011;10985;54.182;7.890;2023-04-25T05:49:56;25.13;;;4.68;;
21647;SDS011;10985;54.182;7.890;2023-04-25T05:52:21;31.98;;;5.53;;
21647;SDS011;10985;54.182;7.890;2023-04-25T05:54:47;20.70;;;4.60;;
21647;SDS011;10985;54.182;7.890;2023-04-25T05:57:22;28.35;;;5.65;;
21647;SDS011;10985;54.182;7.890;2023-04-25T05:59:49;31.10;;;5.15;;
21647;SDS011;10985;54.182;7.890;2023-04-25T06:02:16;25.55;;;5.47;;
21647;SDS011;10985;54.182;7.890;2023-04-25T06:04:42;18.60;;;3.85;;
21647;SDS011;10985;54.182;7.890;2023-04-25T06:07:07;20.45;;;4.40;;
21647;SDS011;10985;54.182;7.890;2023-04-25T06:09:33;15.20;;;4.13;;
21647;SDS011;10985;54.182;7.890;2023-04-25T06:11:59;22.60;;;4.18;;
21647;SDS011;10985;54.182;7.890;2023-04-25T06:14:25;23.48;;;4.05;;
21647;SDS011;10985;54.182;7.890;2023-04-25T06:16:51;21.42;;;5.07;;
21647;SDS011;10985;54.182;7.890;2023-04-25T06:19:17;27.60;;;5.50;;
21647;SDS011;10985;54.182;7.890;2023-04-25T06:21:43;23.75;;;4.32;;
21647;SDS011;10985;54.182;7.890;2023-04-25T06:24:09;18.65;;;3.70;;
21647;SDS011;10985;54.182;7.890;2023-04-25T06:26:34;12.25;;;3.53;;
21647;SDS011;10985;54.182;7.890;2023-04-25T06:29:00;12.00;;;4.03;;
21647;SDS011;10985;54.182;7.890;2023-04-25T06:31:25;20.05;;;4.40;;
21647;SDS011;10985;54.182;7.890;2023-04-25T06:33:51;27.40;;;5.43;;
21647;SDS011;10985;54.182;7.890;2023-04-25T06:36:19;24.45;;;4.70;;
21647;SDS011;10985;54.182;7.890;2023-04-25T06:38:50;21.98;;;4.25;;
21647;SDS011;10985;54.182;7.890;2023-04-25T06:41:16;26.50;;;5.60;;
21647;SDS011;10985;54.182;7.890;2023-04-25T06:43:42;22.05;;;4.85;;
21647;SDS011;10985;54.182;7.890;2023-04-25T06:46:07;21.02;;;4.05;;
21647;SDS011;10985;54.182;7.890;2023-04-25T06:48:33;20.48;;;4.82;;
21647;SDS011;10985;54.182;7.890;2023-04-25T06:50:58;23.17;;;4.43;;
21647;SDS011;10985;54.182;7.890;2023-04-25T06:53:24;22.77;;;4.40;;
21647;SDS011;10985;54.182;7.890;2023-04-25T06:55:49;27.38;;;5.07;;
21647;SDS011;10985;54.182;7.890;2023-04-25T06:58:15;22.88;;;4.72;;
21647;SDS011;10985;54.182;7.890;2023-04-25T07:00:40;22.10;;;4.50;;
21647;SDS011;10985;54.182;7.890;2023-04-25T07:03:06;25.15;;;4.90;;
21647;SDS011;10985;54.182;7.890;2023-04-25T07:05:31;24.23;;;4.97;;
21647;SDS011;10985;54.182;7.890;2023-04-25T07:07:57;26.20;;;5.30;;
21647;SDS011;10985;54.182;7.890;2023-04-25T07:10:22;21.45;;;3.95;;
21647;SDS011;10985;54.182;7.890;2023-04-25T07:12:48;23.40;;;5.57;;
21647;SDS011;10985;54.182;7.890;2023-04-25T07:15:13;21.63;;;4.55;;
21647;SDS011;10985;54.182;7.890;2023-04-25T07:17:39;21.73;;;4.57;;
21647;SDS011;10985;54.182;7.890;2023-04-25T07:20:05;21.05;;;4.10;;
21647;SDS011;10985;54.182;7.890;2023-04-25T07:22:31;20.73;;;4.28;;
21647;SDS011;10985;54.182;7.890;2023-04-25T07:24:57;14.00;;;3.38;;
21647;SDS011;10985;54.182;7.890;2023-04-25T07:27:22;13.50;;;3.45;;
21647;SDS011;10985;54.182;7.890;2023-04-25T07:29:48;24.85;;;4.53;;
21647;SDS011;10985;54.182;7.890;2023-04-25T07:32:14;21.67;;;3.92;;
21647;SDS011;10985;54.182;7.890;2023-04-25T07:34:39;18.58;;;4.30;;
21647;SDS011;10985;54.182;7.890;2023-04-25T07:37:06;24.40;;;4.18;;
21647;SDS011;10985;54.182;7.890;2023-04-25T07:39:31;17.83;;;4.10;;
21647;SDS011;10985;54.182;7.890;2023-04-25T07:41:57;14.88;;;3.95;;
21647;SDS011;10985;54.182;7.890;2023-04-25T07:44:26;24.33;;;5.90;;
21647;SDS011;10985;54.182;7.890;2023-04-25T07:46:52;15.50;;;3.70;;
21647;SDS011;10985;54.182;7.890;2023-04-25T07:49:17;14.73;;;3.65;;
21647;SDS011;10985;54.182;7.890;2023-04-25T07:51:43;23.00;;;4.55;;
21647;SDS011;10985;54.182;7.890;2023-04-25T07:54:09;15.48;;;3.97;;
21647;SDS011;10985;54.182;7.890;2023-04-25T07:56:35;15.70;;;3.83;;
21647;SDS011;10985;54.182;7.890;2023-04-25T07:59:01;10.95;;;2.63;;
21647;SDS011;10985;54.182;7.890;2023-04-25T08:01:26;7.65;;;2.85;;
21647;SDS011;10985;54.182;7.890;2023-04-25T08:03:53;7.47;;;2.97;;
21647;SDS011;10985;54.182;7.890;2023-04-25T08:06:18;11.50;;;3.00;;
21647;SDS011;10985;54.182;7.890;2023-04-25T08:08:44;12.40;;;3.92;;
21647;SDS011;10985;54.182;7.890;2023-04-25T08:11:10;10.63;;;3.38;;
21647;SDS011;10985;54.182;7.890;2023-04-25T08:13:36;12.38;;;3.38;;
21647;SDS011;10985;54.182;7.890;2023-04-25T08:16:01;10.95;;;3.00;;
21647;SDS011;10985;54.182;7.890;2023-04-25T08:18:27;17.55;;;4.15;;
21647;SDS011;10985;54.182;7.890;2023-04-25T08:20:52;14.85;;;3.92;;
21647;SDS011;10985;54.182;7.890;2023-04-25T08:23:18;13.65;;;3.60;;
21647;SDS011;10985;54.182;7.890;2023-04-25T08:25:43;19.05;;;3.78;;
21647;SDS011;10985;54.182;7.890;2023-04-25T08:28:09;15.07;;;3.60;;
21647;SDS011;10985;54.182;7.890;2023-04-25T08:30:36;18.08;;;6.32;;
21647;SDS011;10985;54.182;7.890;2023-04-25T08:33:02;16.25;;;4.63;;
21647;SDS011;10985;54.182;7.890;2023-04-25T08:35:27;11.85;;;3.30;;
21647;SDS011;10985;54.182;7.890;2023-04-25T08:37:53;20.17;;;4.20;;
21647;SDS011;10985;54.182;7.890;2023-04-25T08:40:19;23.15;;;4.00;;
21647;SDS011;10985;54.182;7.890;2023-04-25T08:42:50;13.27;;;3.75;;
21647;SDS011;10985;54.182;7.890;2023-04-25T08:45:18;12.30;;;3.70;;
21647;SDS011;10985;54.182;7.890;2023-04-25T08:47:44;14.90;;;3.30;;
21647;SDS011;10985;54.182;7.890;2023-04-25T08:50:11;14.20;;;3.75;;
21647;SDS011;10985;54.182;7.890;2023-04-25T08:52:39;18.48;;;3.45;;
21647;SDS011;10985;54.182;7.890;2023-04-25T08:55:10;9.57;;;3.22;;
21647;SDS011;10985;54.182;7.890;2023-04-25T08:57:38;16.83;;;3.50;;
21647;SDS011;10985;54.182;7.890;2023-04-25T09:00:04;13.88;;;3.25;;
21647;SDS011;10985;54.182;7.890;2023-04-25T09:02:30;9.05;;;2.92;;
21647;SDS011;10985;54.182;7.890;2023-04-25T09:04:56;7.50;;;3.13;;
21647;SDS011;10985;54.182;7.890;2023-04-25T09:07:22;16.13;;;3.38;;
21647;SDS011;10985;54.182;7.890;2023-04-25T09:09:48;14.73;;;2.88;;
21647;SDS011;10985;54.182;7.890;2023-04-25T09:12:13;10.52;;;4.20;;
21647;SDS011;10985;54.182;7.890;2023-04-25T09:14:39;15.35;;;3.70;;
21647;SDS011;10985;54.182;7.890;2023-04-25T09:17:04;18.13;;;3.80;;
21647;SDS011;10985;54.182;7.890;2023-04-25T09:19:33;12.23;;;3.92;;
21647;SDS011;10985;54.182;7.890;2023-04-25T09:22:01;14.30;;;3.40;;
21647;SDS011;10985;54.182;7.890;2023-04-25T09:24:31;17.48;;;3.95;;
21647;SDS011;10985;54.182;7.890;2023-04-25T09:26:58;10.48;;;3.65;;
21647;SDS011;10985;54.182;7.890;2023-04-25T09:29:33;14.50;;;3.33;;
21647;SDS011;10985;54.182;7.890;2023-04-25T09:34:41;20.30;;;3.47;;
21647;SDS011;10985;54.182;7.890;2023-04-25T09:37:08;12.10;;;3.35;;
21647;SDS011;10985;54.182;7.890;2023-04-25T09:39:35;16.38;;;3.40;;
21647;SDS011;10985;54.182;7.890;2023-04-25T09:42:02;15.63;;;2.83;;
21647;SDS011;10985;54.182;7.890;2023-04-25T09:44:29;8.05;;;2.70;;
21647;SDS011;10985;54.182;7.890;2023-04-25T09:46:54;6.53;;;2.60;;
21647;SDS011;10985;54.182;7.890;2023-04-25T09:49:20;10.20;;;2.92;;
21647;SDS011;10985;54.182;7.890;2023-04-25T09:51:58;9.68;;;2.85;;
21647;SDS011;10985;54.182;7.890;2023-04-25T09:54:25;14.30;;;4.05;;
21647;SDS011;10985;54.182;7.890;2023-04-25T09:56:51;10.95;;;2.92;;
21647;SDS011;10985;54.182;7.890;2023-04-25T09:59:21;12.48;;;3.67;;
21647;SDS011;10985;54.182;7.890;2023-04-25T10:01:49;11.50;;;2.58;;
21647;SDS011;10985;54.182;7.890;2023-04-25T10:04:20;15.57;;;3.22;;
21647;SDS011;10985;54.182;7.890;2023-04-25T10:06:52;15.63;;;2.97;;
21647;SDS011;10985;54.182;7.890;2023-04-25T10:09:20;8.95;;;2.13;;
21647;SDS011;10985;54.182;7.890;2023-04-25T10:11:50;11.98;;;2.72;;
21647;SDS011;10985;54.182;7.890;2023-04-25T10:14:16;11.63;;;2.97;;
21647;SDS011;10985;54.182;7.890;2023-04-25T10:16:42;11.35;;;3.22;;
21647;SDS011;10985;54.182;7.890;2023-04-25T10:19:08;16.38;;;3.72;;
21647;SDS011;10985;54.182;7.890;2023-04-25T10:21:35;17.67;;;3.75;;
21647;SDS011;10985;54.182;7.890;2023-04-25T10:24:09;16.15;;;3.45;;
21647;SDS011;10985;54.182;7.890;2023-04-25T10:26:35;14.77;;;2.97;;
21647;SDS011;10985;54.182;7.890;2023-04-25T10:29:01;11.23;;;3.35;;
21647;SDS011;10985;54.182;7.890;2023-04-25T10:31:29;14.68;;;3.33;;
21647;SDS011;10985;54.182;7.890;2023-04-25T10:33:55;9.38;;;3.50;;
21647;SDS011;10985;54.182;7.890;2023-04-25T10:36:22;10.60;;;3.03;;
21647;SDS011;10985;54.182;7.890;2023-04-25T10:38:49;8.57;;;2.80;;
21647;SDS011;10985;54.182;7.890;2023-04-25T10:41:17;10.32;;;2.42;;
21647;SDS011;10985;54.182;7.890;2023-04-25T10:43:44;8.85;;;2.55;;
21647;SDS011;10985;54.182;7.890;2023-04-25T10:49:00;13.48;;;3.10;;
21647;SDS011;10985;54.182;7.890;2023-04-25T10:51:27;13.25;;;3.20;;
21647;SDS011;10985;54.182;7.890;2023-04-25T10:53:59;5.97;;;2.85;;
21647;SDS011;10985;54.182;7.890;2023-04-25T10:56:33;16.90;;;3.88;;
21647;SDS011;10985;54.182;7.890;2023-04-25T10:59:12;12.02;;;3.22;;
21647;SDS011;10985;54.182;7.890;2023-04-25T11:01:44;16.23;;;3.17;;
21647;SDS011;10985;54.182;7.890;2023-04-25T11:04:30;15.68;;;3.63;;
21647;SDS011;10985;54.182;7.890;2023-04-25T11:09:30;10.68;;;3.33;;
21647;SDS011;10985;54.182;7.890;2023-04-25T11:11:59;16.08;;;2.90;;
21647;SDS011;10985;54.182;7.890;2023-04-25T11:14:25;15.30;;;3.90;;
21647;SDS011;10985;54.182;7.890;2023-04-25T11:16:54;14.07;;;3.08;;
21647;SDS011;10985;54.182;7.890;2023-04-25T11:19:24;9.60;;;2.63;;
21647;SDS011;10985;54.182;7.890;2023-04-25T11:21:50;14.95;;;3.15;;
21647;SDS011;10985;54.182;7.890;2023-04-25T11:24:19;15.65;;;3.15;;
21647;SDS011;10985;54.182;7.890;2023-04-25T11:26:46;11.02;;;3.22;;
21647;SDS011;10985;54.182;7.890;2023-04-25T11:29:13;17.80;;;3.90;;
21647;SDS011;10985;54.182;7.890;2023-04-25T11:31:38;11.80;;;2.63;;
21647;SDS011;10985;54.182;7.890;2023-04-25T11:34:07;16.23;;;3.05;;
21647;SDS011;10985;54.182;7.890;2023-04-25T11:36:33;7.22;;;2.70;;
21647;SDS011;10985;54.182;7.890;2023-04-25T11:38:58;11.20;;;2.97;;
21647;SDS011;10985;54.182;7.890;2023-04-25T11:41:25;16.10;;;2.72;;
21647;SDS011;10985;54.182;7.890;2023-04-25T11:43:50;7.82;;;2.17;;
21647;SDS011;10985;54.182;7.890;2023-04-25T11:46:16;8.43;;;2.33;;
21647;SDS011;10985;54.182;7.890;2023-04-25T11:48:44;11.13;;;2.65;;
21647;SDS011;10985;54.182;7.890;2023-04-25T11:51:10;10.98;;;2.65;;
21647;SDS011;10985;54.182;7.890;2023-04-25T11:53:36;8.43;;;1.60;;
21647;SDS011;10985;54.182;7.890;2023-04-25T11:56:08;5.70;;;2.33;;
21647;SDS011;10985;54.182;7.890;2023-04-25T11:58:53;6.38;;;1.73;;
21647;SDS011;10985;54.182;7.890;2023-04-25T12:01:47;8.60;;;2.40;;
21647;SDS011;10985;54.182;7.890;2023-04-25T12:04:16;8.63;;;2.65;;
21647;SDS011;10985;54.182;7.890;2023-04-25T12:06:52;12.07;;;2.33;;
21647;SDS011;10985;54.182;7.890;2023-04-25T12:09:20;7.35;;;2.33;;
21647;SDS011;10985;54.182;7.890;2023-04-25T12:11:53;14.68;;;2.65;;
21647;SDS011;10985;54.182;7.890;2023-04-25T12:14:29;10.80;;;2.60;;
21647;SDS011;10985;54.182;7.890;2023-04-25T12:17:01;8.13;;;3.15;;
21647;SDS011;10985;54.182;7.890;2023-04-25T12:19:32;12.77;;;3.17;;
21647;SDS011;10985;54.182;7.890;2023-04-25T12:22:00;14.50;;;3.20;;
21647;SDS011;10985;54.182;7.890;2023-04-25T12:24:28;10.93;;;2.90;;
21647;SDS011;10985;54.182;7.890;2023-04-25T12:29:27;17.20;;;3.42;;
21647;SDS011;10985;54.182;7.890;2023-04-25T12:31:54;11.82;;;2.53;;
21647;SDS011;10985;54.182;7.890;2023-04-25T12:34:20;10.52;;;2.40;;
21647;SDS011;10985;54.182;7.890;2023-04-25T12:36:47;11.73;;;2.25;;
21647;SDS011;10985;54.182;7.890;2023-04-25T12:39:14;13.45;;;3.08;;
21647;SDS011;10985;54.182;7.890;2023-04-25T12:41:40;16.23;;;3.58;;
21647;SDS011;10985;54.182;7.890;2023-04-25T12:44:06;16.45;;;3.00;;
21647;SDS011;10985;54.182;7.890;2023-04-25T12:46:31;10.75;;;3.03;;
21647;SDS011;10985;54.182;7.890;2023-04-25T12:48:57;14.23;;;3.70;;
21647;SDS011;10985;54.182;7.890;2023-04-25T12:51:22;14.02;;;3.50;;
21647;SDS011;10985;54.182;7.890;2023-04-25T12:53:49;14.75;;;3.10;;
21647;SDS011;10985;54.182;7.890;2023-04-25T12:56:15;13.85;;;3.53;;
21647;SDS011;10985;54.182;7.890;2023-04-25T12:58:41;14.45;;;3.03;;
21647;SDS011;10985;54.182;7.890;2023-04-25T13:01:09;12.38;;;2.72;;
21647;SDS011;10985;54.182;7.890;2023-04-25T13:03:34;12.68;;;2.95;;
21647;SDS011;10985;54.182;7.890;2023-04-25T13:06:00;14.10;;;2.70;;
21647;SDS011;10985;54.182;7.890;2023-04-25T13:08:26;9.73;;;2.65;;
21647;SDS011;10985;54.182;7.890;2023-04-25T13:10:51;10.75;;;2.70;;
21647;SDS011;10985;54.182;7.890;2023-04-25T13:13:17;13.25;;;2.80;;
21647;SDS011;10985;54.182;7.890;2023-04-25T13:15:42;11.20;;;3.15;;
21647;SDS011;10985;54.182;7.890;2023-04-25T13:18:08;16.45;;;3.72;;
21647;SDS011;10985;54.182;7.890;2023-04-25T13:20:34;12.70;;;3.17;;
21647;SDS011;10985;54.182;7.890;2023-04-25T13:23:00;12.77;;;2.95;;
21647;SDS011;10985;54.182;7.890;2023-04-25T13:25:25;13.50;;;3.58;;
21647;SDS011;10985;54.182;7.890;2023-04-25T13:27:51;8.98;;;2.95;;
21647;SDS011;10985;54.182;7.890;2023-04-25T13:30:16;18.48;;;3.45;;
21647;SDS011;10985;54.182;7.890;2023-04-25T13:32:42;16.27;;;3.47;;
21647;SDS011;10985;54.182;7.890;2023-04-25T13:35:08;16.20;;;3.65;;
21647;SDS011;10985;54.182;7.890;2023-04-25T13:37:35;8.82;;;3.00;;
21647;SDS011;10985;54.182;7.890;2023-04-25T13:40:02;10.60;;;2.88;;
21647;SDS011;10985;54.182;7.890;2023-04-25T13:42:30;7.05;;;2.13;;
21647;SDS011;10985;54.182;7.890;2023-04-25T13:44:58;17.77;;;2.47;;
21647;SDS011;10985;54.182;7.890;2023-04-25T13:47:25;12.93;;;2.50;;
21647;SDS011;10985;54.182;7.890;2023-04-25T13:49:51;6.82;;;2.13;;
21647;SDS011;10985;54.182;7.890;2023-04-25T13:52:16;6.45;;;2.20;;
21647;SDS011;10985;54.182;7.890;2023-04-25T13:54:42;5.57;;;1.90;;
21647;SDS011;10985;54.182;7.890;2023-04-25T13:57:07;7.75;;;2.88;;
21647;SDS011;10985;54.182;7.890;2023-04-25T13:59:33;9.38;;;2.10;;
21647;SDS011;10985;54.182;7.890;2023-04-25T14:01:58;7.97;;;1.90;;
21647;SDS011;10985;54.182;7.890;2023-04-25T14:04:24;9.60;;;2.42;;
21647;SDS011;10985;54.182;7.890;2023-04-25T14:06:50;10.70;;;2.63;;
21647;SDS011;10985;54.182;7.890;2023-04-25T14:09:16;10.02;;;2.33;;
21647;SDS011;10985;54.182;7.890;2023-04-25T14:11:42;8.38;;;2.83;;
21647;SDS011;10985;54.182;7.890;2023-04-25T14:14:07;13.98;;;3.13;;
21647;SDS011;10985;54.182;7.890;2023-04-25T14:16:33;12.50;;;2.78;;
21647;SDS011;10985;54.182;7.890;2023-04-25T14:18:59;12.52;;;2.83;;
21647;SDS011;10985;54.182;7.890;2023-04-25T14:21:26;11.00;;;3.15;;
21647;SDS011;10985;54.182;7.890;2023-04-25T14:23:53;10.60;;;3.40;;
21647;SDS011;10985;54.182;7.890;2023-04-25T14:26:18;14.07;;;3.45;;
21647;SDS011;10985;54.182;7.890;2023-04-25T14:28:44;18.58;;;3.83;;
21647;SDS011;10985;54.182;7.890;2023-04-25T14:31:10;12.10;;;3.50;;
21647;SDS011;10985;54.182;7.890;2023-04-25T14:33:35;12.07;;;3.10;;
21647;SDS011;10985;54.182;7.890;2023-04-25T14:36:02;18.63;;;3.08;;
21647;SDS011;10985;54.182;7.890;2023-04-25T14:38:28;10.98;;;3.03;;
21647;SDS011;10985;54.182;7.890;2023-04-25T14:40:53;10.10;;;2.67;;
21647;SDS011;10985;54.182;7.890;2023-04-25T14:43:19;14.70;;;3.00;;